Time;durP1;ratioP1;P1;durP2;ratioP2;P2;SDS_P1;SDS_P2;PMS_P1;PMS_P2;Temp;Humidity;BMP_temperature;BMP_pressure;BME280_temperature;BME280_humidity;BME280_pressure;Samples;Min_cycle;Max_cycle;Signal;HPM_P1;HPM_P2
2022/07/16 00:02:59;;;;;;;5.22;1.67;;;;;;;18.59;100.00;102100.22;5108447;28;20437;-71
2022/07/16 00:05:24;;;;;;;5.40;1.80;;;;;;;18.58;100.00;102101.09;5094912;28;20051;-70
2022/07/16 00:07:50;;;;;;;3.10;2.13;;;;;;;18.60;100.00;102106.44;5094916;28;20027;-70
2022/07/16 00:10:15;;;;;;;6.18;2.40;;;;;;;18.60;100.00;102103.75;5094732;28;20556;-70
2022/07/16 00:12:40;;;;;;;3.92;1.45;;;;;;;18.59;100.00;102094.88;5094903;28;20027;-72
2022/07/16 00:15:07;;;;;;;4.13;1.85;;;;;;;18.56;100.00;102093.97;5094750;28;20383;-70
2022/07/16 00:17:32;;;;;;;2.95;1.60;;;;;;;18.52;100.00;102093.97;5093782;28;20479;-71
2022/07/16 00:19:58;;;;;;;3.75;1.75;;;;;;;18.50;100.00;102094.84;5097303;28;20024;-71
2022/07/16 00:22:24;;;;;;;3.00;1.77;;;;;;;18.43;100.00;102090.38;5108419;28;20531;-70
2022/07/16 00:24:49;;;;;;;4.25;1.65;;;;;;;18.47;100.00;102092.19;5101526;28;20039;-69
2022/07/16 00:27:14;;;;;;;4.22;1.77;;;;;;;18.50;100.00;102093.09;5114947;28;20455;-70
2022/07/16 00:29:40;;;;;;;4.22;1.40;;;;;;;18.52;100.00;102091.31;5101490;28;20073;-70
2022/07/16 00:32:05;;;;;;;3.90;2.05;;;;;;;18.52;100.00;102090.44;5094387;28;20020;-70
2022/07/16 00:34:31;;;;;;;3.40;1.73;;;;;;;18.50;100.00;102095.75;5094414;28;20031;-71
2022/07/16 00:36:56;;;;;;;5.80;2.17;;;;;;;18.50;100.00;102090.44;5094285;28;20034;-70
2022/07/16 00:39:21;;;;;;;3.38;1.50;;;;;;;18.51;100.00;102094.84;5094434;28;20060;-70
2022/07/16 00:41:48;;;;;;;1.77;1.67;;;;;;;18.51;100.00;102092.19;5094064;28;20020;-70
2022/07/16 00:44:16;;;;;;;2.50;1.63;;;;;;;18.54;100.00;102093.97;5094190;28;20074;-70
2022/07/16 00:46:43;;;;;;;4.97;1.42;;;;;;;18.50;100.00;102086.84;5075934;28;20088;-70
2022/07/16 00:49:09;;;;;;;2.90;1.70;;;;;;;18.57;100.00;102088.66;5076005;28;20046;-70
2022/07/16 00:51:36;;;;;;;3.85;1.55;;;;;;;18.56;100.00;102091.31;5094093;28;20394;-70
2022/07/16 00:54:02;;;;;;;3.65;1.65;;;;;;;18.56;100.00;102089.56;5095052;28;20048;-70
2022/07/16 00:56:28;;;;;;;4.57;1.60;;;;;;;18.60;100.00;102093.09;5114342;28;20031;-70
2022/07/16 00:58:55;;;;;;;4.57;1.90;;;;;;;18.58;100.00;102092.22;5101001;28;20084;-71
2022/07/16 01:01:22;;;;;;;3.13;1.73;;;;;;;18.54;100.00;102092.22;5093784;28;20115;-71
2022/07/16 01:03:48;;;;;;;5.50;1.50;;;;;;;18.54;100.00;102092.22;5093885;28;20024;-70
2022/07/16 01:06:14;;;;;;;4.18;1.92;;;;;;;18.52;100.00;102085.97;5082352;28;20042;-71
2022/07/16 01:08:42;;;;;;;2.95;1.60;;;;;;;18.50;100.00;102093.09;5095861;28;20128;-71
2022/07/16 01:11:09;;;;;;;6.20;2.05;;;;;;;18.50;100.00;102093.09;5107098;28;20024;-70
2022/07/16 01:13:37;;;;;;;3.42;1.63;;;;;;;18.53;100.00;102092.22;5093633;28;20047;-70
2022/07/16 01:16:02;;;;;;;6.10;1.65;;;;;;;18.52;100.00;102090.44;5093714;28;20474;-69
2022/07/16 01:18:28;;;;;;;4.75;1.80;;;;;;;18.57;100.00;102090.44;5096159;28;20099;-69
2022/07/16 01:20:53;;;;;;;4.32;1.73;;;;;;;18.60;100.00;102088.66;5101425;28;20108;-70
2022/07/16 01:23:20;;;;;;;3.45;1.70;;;;;;;18.57;100.00;102087.75;5100327;28;20032;-70
2022/07/16 01:25:46;;;;;;;3.63;1.92;;;;;;;18.62;100.00;102088.66;5113873;28;20023;-71
2022/07/16 01:28:11;;;;;;;5.97;2.70;;;;;;;18.60;100.00;102087.75;5113460;28;20432;-70
2022/07/16 01:30:37;;;;;;;4.72;2.05;;;;;;;18.62;100.00;102086.00;5113843;28;20023;-70
2022/07/16 01:33:19;;;;;;;6.85;2.10;;;;;;;18.56;100.00;102091.31;5112471;28;20030;-70
2022/07/16 01:35:44;;;;;;;3.22;2.05;;;;;;;18.49;100.00;102090.44;5093453;28;20482;-69
2022/07/16 01:38:10;;;;;;;3.63;2.13;;;;;;;18.49;100.00;102093.97;5093313;28;20099;-70
2022/07/16 01:40:36;;;;;;;4.30;2.30;;;;;;;18.44;100.00;102095.72;5093174;28;20027;-70
2022/07/16 01:43:01;;;;;;;6.72;2.50;;;;;;;18.46;100.00;102096.63;5075097;28;20528;-69
2022/07/16 01:45:26;;;;;;;10.85;2.92;;;;;;;18.41;100.00;102098.38;5093317;28;20375;-70
2022/07/16 01:47:52;;;;;;;7.50;2.50;;;;;;;18.39;100.00;102102.81;5093122;28;20056;-70
2022/07/16 01:50:17;;;;;;;7.70;2.35;;;;;;;18.39;100.00;102097.47;5093242;28;20027;-70
2022/07/16 01:52:42;;;;;;;5.60;3.00;;;;;;;18.36;100.00;102106.34;5093177;28;20016;-69
2022/07/16 01:55:08;;;;;;;7.50;2.50;;;;;;;18.38;100.00;102101.03;5093454;28;20055;-70
2022/07/16 01:57:33;;;;;;;15.95;2.85;;;;;;;18.36;100.00;102110.78;5093081;28;20039;-70
2022/07/16 01:59:59;;;;;;;7.38;2.42;;;;;;;18.34;100.00;102108.13;5093223;28;20024;-70
2022/07/16 02:02:24;;;;;;;7.35;2.58;;;;;;;18.36;100.00;102105.47;5092933;28;20052;-70
2022/07/16 02:04:49;;;;;;;8.15;2.83;;;;;;;18.32;100.00;102106.34;5102536;28;20027;-70
2022/07/16 02:07:15;;;;;;;5.97;2.65;;;;;;;18.28;100.00;102109.88;5097094;28;20387;-70
2022/07/16 02:09:40;;;;;;;8.15;2.47;;;;;;;18.25;100.00;102105.41;5084113;28;20032;-70
2022/07/16 02:12:06;;;;;;;11.95;2.60;;;;;;;18.24;100.00;102116.06;5111171;28;20456;-71
2022/07/16 02:14:31;;;;;;;6.80;2.47;;;;;;;18.22;100.00;102125.81;5093034;28;20103;-71
2022/07/16 02:16:56;;;;;;;10.02;2.60;;;;;;;18.19;100.00;102108.94;5092920;28;20034;-70
2022/07/16 02:19:22;;;;;;;6.35;2.08;;;;;;;18.13;100.00;102111.56;5095326;28;20099;-70
2022/07/16 02:21:47;;;;;;;6.20;1.75;;;;;;;18.08;100.00;102120.41;5090128;28;20031;-71
2022/07/16 02:24:13;;;;;;;3.85;1.73;;;;;;;18.05;100.00;102121.28;5097574;28;20055;-69
2022/07/16 02:26:38;;;;;;;5.68;1.95;;;;;;;18.03;100.00;102123.06;5108160;28;20463;-70
2022/07/16 02:29:03;;;;;;;5.40;1.52;;;;;;;17.94;100.00;102123.00;5113204;28;20081;-70
2022/07/16 02:31:29;;;;;;;7.53;1.38;;;;;;;17.94;100.00;102123.00;5113258;28;20030;-70
2022/07/16 02:33:54;;;;;;;6.60;1.20;;;;;;;17.94;100.00;102123.00;5113125;28;20144;-70
2022/07/16 02:36:19;;;;;;;6.78;1.40;;;;;;;17.92;100.00;102130.97;5113111;28;20463;-71
2022/07/16 02:38:45;;;;;;;5.55;1.48;;;;;;;17.83;100.00;102137.06;5113107;28;20024;-71
2022/07/16 02:41:10;;;;;;;2.50;1.10;;;;;;;17.76;100.00;102137.03;5115138;28;20467;-70
2022/07/16 02:43:35;;;;;;;3.92;1.55;;;;;;;17.70;100.00;102140.53;5116997;28;20027;-70
2022/07/16 02:46:01;;;;;;;2.65;1.23;;;;;;;17.66;100.00;102136.06;5116797;28;20081;-70
2022/07/16 02:48:26;;;;;;;2.75;1.10;;;;;;;17.62;100.00;102136.91;5098523;28;20051;-69
2022/07/16 02:50:51;;;;;;;4.72;1.25;;;;;;;17.59;100.00;102142.22;5116722;28;20050;-70
2022/07/16 02:53:17;;;;;;;6.88;1.23;;;;;;;17.49;100.00;102136.81;5109185;28;20540;-70
2022/07/16 02:55:42;;;;;;;2.55;1.20;;;;;;;17.45;100.00;102140.34;5079244;28;20498;-69
2022/07/16 02:58:07;;;;;;;3.85;1.20;;;;;;;17.39;100.00;102142.97;5103563;28;20486;-70
2022/07/16 03:00:33;;;;;;;3.15;1.25;;;;;;;17.41;100.00;102149.16;5098085;28;20387;-70
2022/07/16 03:02:59;;;;;;;5.10;1.38;;;;;;;17.36;100.00;102161.53;5103080;28;20028;-70
2022/07/16 03:05:25;;;;;;;4.38;1.73;;;;;;;17.29;100.00;102162.34;5116555;28;20027;-69
2022/07/16 03:07:50;;;;;;;6.38;1.65;;;;;;;17.21;100.00;102156.06;5116427;28;20024;-70
2022/07/16 03:10:16;;;;;;;3.05;1.30;;;;;;;17.16;100.00;102154.25;5116293;28;20387;-70
2022/07/16 03:12:42;;;;;;;3.70;1.60;;;;;;;17.09;100.00;102155.06;5095945;28;20016;-69
2022/07/16 03:15:10;;;;;;;3.78;1.40;;;;;;;17.06;100.00;102157.69;5095950;28;20024;-69
2022/07/16 03:17:35;;;;;;;5.63;1.30;;;;;;;17.03;100.00;102157.66;5096097;28;20391;-70
2022/07/16 03:20:01;;;;;;;2.95;1.40;;;;;;;16.98;100.00;102154.06;5098417;28;20024;-70
2022/07/16 03:22:26;;;;;;;7.10;2.30;;;;;;;16.98;100.00;102154.06;5108668;28;20028;-70
2022/07/16 03:24:51;;;;;;;3.38;1.40;;;;;;;16.94;100.00;102161.13;5109544;28;20102;-70
2022/07/16 03:27:17;;;;;;;4.05;1.73;;;;;;;16.92;100.00;102156.66;5095735;28;20023;-70
2022/07/16 03:29:42;;;;;;;6.07;1.50;;;;;;;16.88;100.00;102157.47;5077444;28;20042;-70
2022/07/16 03:32:07;;;;;;;7.60;1.65;;;;;;;16.85;100.00;102163.63;5095665;28;20478;-69
2022/07/16 03:34:33;;;;;;;4.07;1.50;;;;;;;16.83;100.00;102168.03;5095629;28;20505;-71
2022/07/16 03:36:58;;;;;;;6.15;1.50;;;;;;;16.86;100.00;102176.03;5095557;28;20032;-70
2022/07/16 03:39:24;;;;;;;7.68;1.63;;;;;;;16.90;100.00;102185.91;5095499;28;20028;-71
2022/07/16 03:41:49;;;;;;;5.47;1.52;;;;;;;16.97;100.00;102182.41;5095221;28;20410;-70
2022/07/16 03:44:14;;;;;;;3.53;1.88;;;;;;;17.09;100.00;102187.00;5095423;28;20024;-70
2022/07/16 03:46:40;;;;;;;8.90;2.20;;;;;;;17.13;100.00;102186.16;5095491;28;20085;-69
2022/07/16 03:49:06;;;;;;;8.20;1.95;;;;;;;17.17;100.00;102193.28;5108458;28;20103;-70
2022/07/16 03:51:32;;;;;;;5.50;2.08;;;;;;;17.11;100.00;102192.31;5095664;28;20024;-69
2022/07/16 03:53:57;;;;;;;5.68;1.75;;;;;;;17.10;100.00;102191.41;5108112;28;20047;-70
2022/07/16 03:56:24;;;;;;;7.30;1.98;;;;;;;17.09;100.00;102192.31;5109061;28;20027;-71
2022/07/16 03:58:50;;;;;;;6.85;1.73;;;;;;;17.08;100.00;102187.84;5095104;28;20024;-70
2022/07/16 04:01:15;;;;;;;8.07;1.83;;;;;;;17.07;100.00;102191.38;5094928;28;20031;-70
2022/07/16 04:03:40;;;;;;;5.95;1.80;;;;;;;17.01;100.00;102192.22;5094998;28;20356;-70
2022/07/16 04:06:06;;;;;;;5.28;1.80;;;;;;;16.97;100.00;102201.03;5094922;28;20464;-71
2022/07/16 04:08:32;;;;;;;3.55;1.30;;;;;;;16.93;100.00;102199.22;5094649;28;20012;-71
2022/07/16 04:10:57;;;;;;;5.80;1.50;;;;;;;16.94;100.00;102202.75;5094631;28;20024;-70
2022/07/16 04:13:23;;;;;;;6.32;1.40;;;;;;;16.89;100.00;102201.75;5094844;28;20035;-69
2022/07/16 04:15:48;;;;;;;8.15;1.33;;;;;;;16.84;100.00;102204.38;5094639;28;20020;-70
2022/07/16 04:18:15;;;;;;;4.20;1.80;;;;;;;16.82;100.00;102212.34;5096011;28;20464;-70
2022/07/16 04:20:40;;;;;;;7.07;1.30;;;;;;;16.86;100.00;102214.16;5101580;28;20054;-69
2022/07/16 04:23:06;;;;;;;5.43;1.38;;;;;;;16.89;100.00;102225.69;5102288;28;20056;-70
2022/07/16 04:25:32;;;;;;;5.18;1.52;;;;;;;16.90;100.00;102224.84;5113800;28;20106;-70
2022/07/16 04:27:57;;;;;;;4.50;1.50;;;;;;;16.86;100.00;102230.13;5114950;28;20055;-71
2022/07/16 04:30:23;;;;;;;4.75;1.23;;;;;;;16.91;100.00;102231.97;5114981;28;20030;-70
2022/07/16 04:32:48;;;;;;;4.45;1.35;;;;;;;16.97;100.00;102238.25;5114821;28;20071;-70
2022/07/16 04:35:14;;;;;;;6.95;1.45;;;;;;;16.97;100.00;102237.34;5114727;28;20110;-70
2022/07/16 04:37:40;;;;;;;4.05;1.33;;;;;;;17.07;100.00;102239.25;5114690;28;20027;-70
2022/07/16 04:40:08;;;;;;;6.15;1.42;;;;;;;17.07;100.00;102247.25;5114646;28;20130;-69
2022/07/16 04:42:36;;;;;;;5.18;0.98;;;;;;;17.07;100.00;102241.03;5114592;28;20031;-69
2022/07/16 04:45:01;;;;;;;6.32;1.27;;;;;;;17.12;100.00;102248.19;5114593;28;20042;-71
2022/07/16 04:47:27;;;;;;;4.55;1.30;;;;;;;17.11;100.00;102250.84;5114560;28;20027;-71
2022/07/16 04:49:52;;;;;;;4.25;2.15;;;;;;;17.10;100.00;102247.25;5114274;28;20503;-69
2022/07/16 04:52:17;;;;;;;2.78;1.15;;;;;;;17.11;100.00;102257.03;5114541;28;20024;-70
2022/07/16 04:54:43;;;;;;;5.15;1.40;;;;;;;17.10;100.00;102255.25;5114115;28;20044;-70
2022/07/16 04:57:08;;;;;;;4.22;1.20;;;;;;;17.10;100.00;102252.59;5101731;28;20148;-69
2022/07/16 04:59:33;;;;;;;5.43;1.40;;;;;;;17.11;100.00;102257.03;5093952;28;20476;-70
2022/07/16 05:04:42;;;;;;;4.43;1.58;;;;;;;17.13;100.00;102251.72;5101710;28;20076;-70
2022/07/16 05:07:08;;;;;;;6.10;1.33;;;;;;;17.12;100.00;102261.50;5114219;28;20487;-71
2022/07/16 05:09:33;;;;;;;5.95;1.58;;;;;;;17.11;100.00;102262.34;5114208;28;20548;-70
2022/07/16 05:11:58;;;;;;;2.85;1.30;;;;;;;17.01;100.00;102252.47;5114006;28;20020;-70
2022/07/16 05:14:24;;;;;;;6.57;1.58;;;;;;;16.95;100.00;102255.06;5114093;28;20031;-70
2022/07/16 05:16:49;;;;;;;5.28;1.48;;;;;;;17.07;100.00;102259.66;5113957;28;20139;-70
2022/07/16 05:19:14;;;;;;;7.85;1.67;;;;;;;17.09;100.00;102264.13;5106575;28;20119;-69
2022/07/16 05:21:40;;;;;;;5.32;1.20;;;;;;;17.12;100.00;102264.16;5107043;28;20092;-70
2022/07/16 05:24:05;;;;;;;5.60;1.20;;;;;;;17.15;100.00;102268.63;5101286;28;20596;-69
2022/07/16 05:26:30;;;;;;;7.05;1.40;;;;;;;17.17;100.00;102267.78;5113896;28;20115;-70
2022/07/16 05:28:56;;;;;;;6.57;1.42;;;;;;;17.18;100.00;102272.19;5113847;28;20069;-70
2022/07/16 05:31:21;;;;;;;6.32;1.63;;;;;;;17.25;100.00;102275.81;5094957;28;20020;-70
2022/07/16 05:33:46;;;;;;;4.25;1.50;;;;;;;17.28;100.00;102269.66;5093432;28;20052;-70
2022/07/16 05:36:12;;;;;;;3.50;1.23;;;;;;;17.18;100.00;102282.81;5093344;28;20073;-70
2022/07/16 05:38:37;;;;;;;3.85;1.73;;;;;;;17.28;100.00;102274.97;5093376;28;20034;-70
2022/07/16 05:41:03;;;;;;;7.05;1.73;;;;;;;17.33;100.00;102283.91;5093212;28;20028;-71
2022/07/16 05:43:28;;;;;;;12.23;1.58;;;;;;;17.36;100.00;102282.19;5093312;28;20593;-70
2022/07/16 05:45:54;;;;;;;4.25;1.63;;;;;;;17.43;100.00;102288.47;5093332;28;20107;-71
2022/07/16 05:48:19;;;;;;;6.20;2.05;;;;;;;17.42;100.00;102286.66;5093214;28;20024;-70
2022/07/16 05:50:44;;;;;;;3.65;1.20;;;;;;;17.42;100.00;102288.44;5088464;28;20067;-70
2022/07/16 05:53:09;;;;;;;5.38;1.20;;;;;;;17.49;100.00;102284.97;5093163;28;20103;-70
2022/07/16 05:55:35;;;;;;;6.15;1.60;;;;;;;17.48;100.00;102294.69;5094257;28;20030;-70
2022/07/16 05:58:00;;;;;;;8.13;1.67;;;;;;;17.51;100.00;102294.75;5099579;28;20024;-70
2022/07/16 06:00:26;;;;;;;4.95;1.15;;;;;;;17.51;100.00;102294.75;5100178;28;20034;-70
2022/07/16 06:02:52;;;;;;;6.45;1.38;;;;;;;17.54;100.00;102293.91;5106680;28;20033;-70
2022/07/16 06:05:17;;;;;;;5.45;1.45;;;;;;;17.61;100.00;102301.06;5093138;28;20542;-70
2022/07/16 06:07:42;;;;;;;7.72;1.65;;;;;;;17.63;100.00;102301.09;5092969;28;20028;-71
2022/07/16 06:10:08;;;;;;;8.43;1.58;;;;;;;17.68;100.00;102310.00;5093121;28;20360;-70
2022/07/16 06:12:33;;;;;;;4.20;1.50;;;;;;;17.75;100.00;102301.22;5093084;28;20020;-71
2022/07/16 06:14:58;;;;;;;3.20;1.05;;;;;;;17.79;100.00;102310.13;5093473;28;20027;-70
2022/07/16 06:17:24;;;;;;;6.53;1.23;;;;;;;17.80;100.00;102311.91;5097024;28;20528;-71
2022/07/16 06:19:49;;;;;;;6.82;1.55;;;;;;;17.79;100.00;102316.34;5099303;28;20020;-71
2022/07/16 06:22:14;;;;;;;4.03;1.00;;;;;;;17.80;100.00;102318.13;5092369;28;20475;-70
2022/07/16 06:24:40;;;;;;;4.20;1.30;;;;;;;17.85;100.00;102321.72;5109038;28;20482;-71
2022/07/16 06:27:05;;;;;;;5.35;1.08;;;;;;;17.81;100.00;102319.91;5117419;28;20043;-71
2022/07/16 06:29:30;;;;;;;4.82;1.25;;;;;;;17.78;100.00;102329.63;5105733;28;20024;-71
2022/07/16 06:31:56;;;;;;;4.40;1.10;;;;;;;17.82;100.00;102331.44;5096856;28;20020;-70
2022/07/16 06:34:21;;;;;;;6.50;1.10;;;;;;;17.78;100.00;102335.84;5096726;28;20032;-70
2022/07/16 06:36:47;;;;;;;5.93;1.08;;;;;;;17.82;100.00;102342.09;5078598;28;20024;-70
2022/07/16 06:39:12;;;;;;;8.45;1.30;;;;;;;17.79;100.00;102340.28;5096632;28;20035;-69
2022/07/16 06:41:39;;;;;;;5.97;1.00;;;;;;;17.84;100.00;102341.25;5096662;28;20056;-70
2022/07/16 06:44:06;;;;;;;4.25;1.27;;;;;;;17.83;100.00;102352.75;5097344;28;20032;-71
2022/07/16 06:46:31;;;;;;;4.63;1.10;;;;;;;17.94;100.00;102357.34;5078885;28;20047;-71
2022/07/16 06:48:57;;;;;;;5.18;1.10;;;;;;;17.94;100.00;102355.56;5097050;28;20086;-71
2022/07/16 06:51:22;;;;;;;5.80;1.20;;;;;;;18.03;100.00;102362.78;5096940;28;20024;-70
2022/07/16 06:53:48;;;;;;;4.15;1.02;;;;;;;18.10;100.00;102359.28;5078819;28;20051;-70
2022/07/16 06:56:13;;;;;;;6.82;1.23;;;;;;;18.24;100.00;102363.84;5077998;28;20115;-70
2022/07/16 06:58:39;;;;;;;4.03;0.70;;;;;;;18.27;100.00;102362.13;5097171;28;20040;-70
2022/07/16 07:01:04;;;;;;;5.57;0.90;;;;;;;18.36;100.00;102366.63;5078386;28;20028;-71
2022/07/16 07:03:30;;;;;;;4.88;1.00;;;;;;;18.37;100.00;102371.09;5096702;28;20023;-72
2022/07/16 07:05:56;;;;;;;3.63;1.05;;;;;;;18.43;100.00;102370.25;5078633;28;20020;-71
2022/07/16 07:08:21;;;;;;;5.22;1.27;;;;;;;18.43;100.00;102379.13;5096448;28;20111;-71
2022/07/16 07:10:46;;;;;;;3.47;1.00;;;;;;;18.40;100.00;102376.44;5096667;28;20020;-71
2022/07/16 07:13:12;;;;;;;3.45;0.80;;;;;;;18.30;100.00;102379.88;5078571;28;20440;-71
2022/07/16 07:15:37;;;;;;;7.22;1.10;;;;;;;18.34;100.00;102389.72;5078276;28;20028;-71
2022/07/16 07:18:03;;;;;;;4.80;0.77;;;;;;;18.35;100.00;102386.16;5096587;28;20024;-71
2022/07/16 07:20:28;;;;;;;3.35;0.85;;;;;;;18.39;100.00;102382.63;5103025;28;20026;-70
2022/07/16 07:22:53;;;;;;;3.60;0.80;;;;;;;18.41;100.00;102386.22;5105969;28;20020;-71
2022/07/16 07:25:19;;;;;;;4.50;1.27;;;;;;;18.51;100.00;102384.53;5114170;28;20482;-71
2022/07/16 07:27:44;;;;;;;3.00;0.85;;;;;;;18.59;100.00;102385.47;5116449;28;20406;-71
2022/07/16 07:30:11;;;;;;;5.43;0.88;;;;;;;18.64;100.00;102385.53;5116787;28;20020;-69
2022/07/16 07:32:37;;;;;;;9.35;1.15;;;;;;;18.72;100.00;102386.47;5116855;28;20041;-71
2022/07/16 07:35:02;;;;;;;3.58;0.75;;;;;;;18.83;100.00;102386.56;5116676;28;20027;-71
2022/07/16 07:37:28;;;;;;;3.05;0.95;;;;;;;18.95;100.00;102383.09;5117010;28;20020;-70
2022/07/16 07:39:53;;;;;;;5.10;1.23;;;;;;;18.95;100.00;102392.00;5116866;28;20023;-71
2022/07/16 07:42:18;;;;;;;4.43;1.00;;;;;;;19.02;100.00;102399.16;5116435;28;20076;-70
2022/07/16 07:44:44;;;;;;;2.65;0.90;;;;;;;19.08;100.00;102392.97;5116782;28;20031;-69
2022/07/16 07:47:09;;;;;;;3.75;1.10;;;;;;;19.12;100.00;102396.53;5116817;28;20031;-71
2022/07/16 07:49:34;;;;;;;1.80;0.80;;;;;;;19.27;100.00;102396.63;5098453;28;20019;-70
2022/07/16 07:52:00;;;;;;;6.63;1.00;;;;;;;19.32;100.00;102394.88;5116546;28;20020;-71
2022/07/16 07:54:25;;;;;;;4.32;1.05;;;;;;;19.43;100.00;102394.94;5116137;28;20044;-71
2022/07/16 07:56:51;;;;;;;5.97;1.02;;;;;;;19.44;100.00;102402.06;5105535;28;20476;-71
2022/07/16 07:59:16;;;;;;;4.50;1.38;;;;;;;19.49;98.01;102407.41;5095553;28;20383;-71
2022/07/16 08:01:42;;;;;;;4.70;0.98;;;;;;;19.57;95.64;102411.00;5095870;28;20078;-71
2022/07/16 08:04:09;;;;;;;2.47;0.90;;;;;;;19.63;96.21;102404.78;5096317;28;20061;-72
2022/07/16 08:06:34;;;;;;;6.85;1.00;;;;;;;19.64;95.24;102417.25;5095939;28;20102;-70
2022/07/16 08:08:59;;;;;;;3.28;0.70;;;;;;;19.81;96.18;102420.91;5095683;28;20028;-71
2022/07/16 08:11:25;;;;;;;2.85;0.77;;;;;;;19.80;91.85;102419.13;5095704;28;20085;-71
2022/07/16 08:13:50;;;;;;;4.18;0.93;;;;;;;19.67;91.14;102427.97;5095731;28;20224;-71
2022/07/16 08:16:15;;;;;;;4.93;1.25;;;;;;;19.69;92.63;102431.53;5095160;28;20016;-71
2022/07/16 08:18:41;;;;;;;5.65;1.13;;;;;;;19.64;94.31;102439.53;5096718;28;20028;-71
2022/07/16 08:21:06;;;;;;;4.57;1.20;;;;;;;19.77;93.28;102435.13;5105208;28;20024;-71
2022/07/16 08:26:15;;;;;;;8.10;1.00;;;;;;;19.69;93.05;102444.88;5116470;28;20042;-73
2022/07/16 08:28:42;;;;;;;7.82;1.10;;;;;;;19.67;90.48;102444.00;5115732;28;20467;-72
2022/07/16 08:31:08;;;;;;;2.05;0.90;;;;;;;19.75;91.48;102452.03;5115979;28;20233;-71
2022/07/16 08:33:33;;;;;;;3.63;0.98;;;;;;;19.74;91.33;102445.78;5097961;28;20051;-71
2022/07/16 08:36:01;;;;;;;6.50;0.90;;;;;;;19.76;94.20;102454.69;5116152;28;20028;-71
2022/07/16 08:38:26;;;;;;;4.47;1.05;;;;;;;19.84;91.56;102452.97;5109287;28;20107;-71
2022/07/16 08:40:55;;;;;;;2.47;0.70;;;;;;;20.02;93.17;102459.28;5095166;28;20111;-70
2022/07/16 08:43:21;;;;;;;3.75;1.17;;;;;;;19.93;92.09;102460.16;5077056;28;20119;-71
2022/07/16 08:45:47;;;;;;;4.03;0.80;;;;;;;20.05;92.80;102462.84;5095759;28;20140;-71
2022/07/16 08:48:13;;;;;;;4.75;1.00;;;;;;;20.04;90.87;102470.88;5095544;28;20057;-71
2022/07/16 08:50:39;;;;;;;5.18;1.15;;;;;;;20.08;90.18;102467.31;5095474;28;20030;-71
2022/07/16 08:53:07;;;;;;;3.88;0.90;;;;;;;20.13;93.37;102475.34;5100893;28;20031;-71
2022/07/16 08:55:35;;;;;;;4.22;1.42;;;;;;;20.25;93.93;102482.50;5083529;28;20067;-72
2022/07/16 08:58:00;;;;;;;3.55;1.42;;;;;;;20.28;91.11;102477.16;5094482;28;20031;-71
2022/07/16 09:00:25;;;;;;;3.22;0.70;;;;;;;20.37;91.23;102475.41;5108051;28;20102;-71
2022/07/16 09:02:51;;;;;;;4.03;1.42;;;;;;;20.53;91.14;102480.78;5095074;28;20463;-72
2022/07/16 09:05:16;;;;;;;4.90;0.90;;;;;;;20.45;91.51;102486.09;5094841;28;20024;-71
2022/07/16 09:07:42;;;;;;;2.17;0.82;;;;;;;20.57;91.32;102485.25;5094734;28;20027;-71
2022/07/16 09:10:09;;;;;;;4.00;0.70;;;;;;;20.45;88.57;102486.09;5107544;28;20027;-70
2022/07/16 09:12:46;;;;;;;6.07;0.82;;;;;;;20.43;88.05;102484.31;5108946;28;20012;-71
2022/07/16 09:15:26;;;;;;;2.55;0.77;;;;;;;20.58;89.13;102484.34;5076688;28;20031;-71
2022/07/16 09:18:21;;;;;;;4.95;0.70;;;;;;;20.76;87.07;102493.31;5076583;28;20024;-71
2022/07/16 09:21:12;;;;;;;8.15;1.25;;;;;;;21.10;84.38;102496.00;5101142;28;20019;-70
2022/07/16 09:23:38;;;;;;;2.78;0.93;;;;;;;21.15;81.84;102488.84;5095842;28;20093;-71
2022/07/16 09:26:07;;;;;;;7.63;1.23;;;;;;;21.26;82.64;102484.34;5114757;28;20065;-71
2022/07/16 09:28:43;;;;;;;4.85;0.75;;;;;;;21.28;83.05;102497.75;5111055;28;20027;-71
2022/07/16 09:31:29;;;;;;;3.47;0.80;;;;;;;21.33;78.24;102495.94;5094266;28;20028;-72
2022/07/16 09:34:20;;;;;;;5.95;1.17;;;;;;;21.29;79.50;102503.09;5101999;28;20031;-72
2022/07/16 09:37:01;;;;;;;4.28;1.33;;;;;;;21.30;75.58;102512.03;5111392;28;20071;-72
2022/07/16 09:39:31;;;;;;;3.97;0.85;;;;;;;21.35;78.80;102511.13;5114227;28;20475;-71
2022/07/16 09:41:57;;;;;;;4.88;0.98;;;;;;;21.44;80.88;102517.34;5094030;28;20027;-72
2022/07/16 09:44:29;;;;;;;6.15;1.05;;;;;;;21.45;76.60;102520.03;5094030;28;20024;-71
2022/07/16 09:47:13;;;;;;;4.22;0.93;;;;;;;21.56;78.72;102531.63;5094059;28;20073;-72
2022/07/16 09:49:49;;;;;;;10.20;0.80;;;;;;;21.71;78.27;102529.81;5094181;28;20472;-71
2022/07/16 09:52:37;;;;;;;7.32;1.55;;;;;;;21.84;79.65;102530.66;5094322;28;20081;-72
2022/07/16 09:55:03;;;;;;;3.05;1.00;;;;;;;21.99;77.94;102530.63;5103328;28;20048;-72
2022/07/16 09:57:30;;;;;;;5.68;1.08;;;;;;;22.05;75.54;102524.31;5100934;28;20024;-72
2022/07/16 09:59:57;;;;;;;4.53;1.02;;;;;;;22.11;74.99;102532.34;5105978;28;20063;-72
2022/07/16 10:02:23;;;;;;;2.85;0.73;;;;;;;22.22;75.94;102533.19;5075747;28;20099;-72
2022/07/16 10:04:49;;;;;;;2.40;0.70;;;;;;;22.22;72.94;102543.91;5094042;28;20032;-71
2022/07/16 10:07:17;;;;;;;4.43;1.35;;;;;;;22.34;71.95;102542.06;5093649;28;20039;-70
2022/07/16 10:09:42;;;;;;;3.38;0.90;;;;;;;22.39;69.40;102527.75;5094193;28;20020;-72
2022/07/16 10:12:12;;;;;;;3.65;1.00;;;;;;;22.43;69.62;102536.66;5093820;28;20081;-71
2022/07/16 10:14:44;;;;;;;2.47;0.65;;;;;;;22.42;70.61;102542.94;5076044;28;20024;-71
2022/07/16 10:17:21;;;;;;;2.13;0.80;;;;;;;22.43;72.22;102536.66;5093816;28;20024;-71
2022/07/16 10:20:01;;;;;;;5.30;1.25;;;;;;;22.45;70.71;102545.63;5107123;28;20024;-70
2022/07/16 10:22:31;;;;;;;3.88;1.13;;;;;;;22.49;69.18;102536.66;5093800;28;20036;-71
2022/07/16 10:24:57;;;;;;;2.75;1.02;;;;;;;22.44;66.85;102538.47;5108623;28;20115;-70
2022/07/16 10:27:30;;;;;;;4.65;0.80;;;;;;;22.84;72.21;102548.94;5105971;28;20035;-72
2022/07/16 10:30:25;;;;;;;5.20;1.10;;;;;;;22.69;73.51;102551.72;5093969;28;20028;-71
2022/07/16 10:32:59;;;;;;;6.40;0.90;;;;;;;22.87;72.20;102543.53;5093780;28;20059;-71
2022/07/16 10:35:29;;;;;;;4.28;0.80;;;;;;;22.89;67.95;102544.41;5101389;28;20027;-70
2022/07/16 10:38:09;;;;;;;4.05;0.93;;;;;;;22.76;65.82;102547.19;5113686;28;20478;-71
2022/07/16 10:40:37;;;;;;;5.05;1.50;;;;;;;23.02;71.37;102553.25;5114251;28;20107;-71
2022/07/16 10:43:10;;;;;;;3.85;0.98;;;;;;;23.10;71.30;102553.22;5095695;28;20077;-71
2022/07/16 10:46:03;;;;;;;3.05;0.90;;;;;;;22.98;64.38;102558.66;5114216;28;20023;-70
2022/07/16 10:48:37;;;;;;;3.45;0.77;;;;;;;22.95;66.27;102556.88;5111405;28;20035;-71
2022/07/16 10:51:24;;;;;;;4.60;0.85;;;;;;;22.81;66.87;102562.34;5114028;28;20034;-71
2022/07/16 10:53:56;;;;;;;3.13;0.80;;;;;;;23.05;64.78;102560.41;5113774;28;20054;-70
2022/07/16 10:56:45;;;;;;;4.65;1.15;;;;;;;23.28;69.82;102575.44;5093942;28;20072;-71
2022/07/16 10:59:19;;;;;;;3.85;1.10;;;;;;;23.46;64.49;102572.59;5093864;28;20025;-69
2022/07/16 11:01:46;;;;;;;3.42;1.00;;;;;;;23.48;61.38;102568.09;5095177;28;20305;-71
2022/07/16 11:04:12;;;;;;;1.98;0.80;;;;;;;23.69;63.27;102576.84;5109996;28;20092;-72
2022/07/16 11:06:40;;;;;;;5.43;1.45;;;;;;;23.39;60.82;102568.19;5096236;28;20028;-71
2022/07/16 11:09:08;;;;;;;8.32;1.20;;;;;;;23.55;63.13;102577.00;5077884;28;20438;-72
2022/07/16 11:11:33;;;;;;;4.63;0.95;;;;;;;23.45;63.11;102576.16;5096021;28;20013;-71
2022/07/16 11:14:00;;;;;;;4.90;1.10;;;;;;;23.48;62.03;102568.09;5096235;28;20039;-71
2022/07/16 11:16:26;;;;;;;3.83;0.90;;;;;;;23.75;62.47;102576.75;5095997;28;20031;-71
2022/07/16 11:18:51;;;;;;;5.32;1.52;;;;;;;23.87;59.82;102579.31;5097993;28;20032;-71
2022/07/16 11:21:17;;;;;;;4.70;1.17;;;;;;;23.92;62.38;102583.81;5106914;28;20064;-71
2022/07/16 11:23:52;;;;;;;10.00;1.08;;;;;;;23.79;58.11;102583.88;5102394;28;20419;-71
2022/07/16 11:26:19;;;;;;;4.03;1.17;;;;;;;24.00;57.87;102581.91;5116429;28;20051;-72